createdAt,value
2018-07-11T00:00:37.934Z,53.10
2018-07-11T00:03:06.803Z,53.40
2018-07-11T00:05:35.710Z,54.10
2018-07-11T00:08:04.786Z,54.50
2018-07-11T00:10:33.695Z,55.60
2018-07-11T00:13:02.684Z,54.80
2018-07-11T00:15:32.330Z,54.00
2018-07-11T00:18:01.572Z,54.60
2018-07-11T00:20:30.767Z,54.70
2018-07-11T00:23:00.117Z,55.00
2018-07-11T00:25:29.409Z,54.70
2018-07-11T00:27:58.555Z,54.10
2018-07-11T00:32:56.843Z,53.70
2018-07-11T00:35:25.780Z,54.10
2018-07-11T00:37:54.729Z,54.20
2018-07-11T00:40:23.774Z,54.30
2018-07-11T00:42:52.706Z,54.30
2018-07-11T00:45:22.026Z,54.20
2018-07-11T00:47:51.020Z,54.10
2018-07-11T00:50:19.923Z,54.70
2018-07-11T00:52:48.926Z,54.70
2018-07-11T00:55:17.979Z,54.60
2018-07-11T00:57:47.206Z,54.50
2018-07-11T01:00:16.051Z,54.70
2018-07-11T01:02:45.002Z,54.70
2018-07-11T01:05:13.931Z,55.30
2018-07-11T01:07:43.378Z,53.60
2018-07-11T01:10:12.426Z,54.20
2018-07-11T01:12:41.359Z,54.60
2018-07-11T01:15:10.337Z,54.90
2018-07-11T01:17:44.663Z,55.60
2018-07-11T01:20:14.115Z,54.30
2018-07-11T01:22:42.912Z,54.40
2018-07-11T01:25:11.726Z,54.10
2018-07-11T01:27:40.555Z,53.90
2018-07-11T01:30:09.374Z,53.90
2018-07-11T01:32:38.166Z,53.80
2018-07-11T01:35:07.253Z,53.30
2018-07-11T01:37:36.076Z,53.90
2018-07-11T01:42:33.339Z,54.00
2018-07-11T01:45:02.167Z,53.90
2018-07-11T01:47:31.021Z,54.00
2018-07-11T01:50:00.008Z,53.90
2018-07-11T01:52:39.910Z,54.00
2018-07-11T01:55:08.774Z,53.20
2018-07-11T01:57:37.702Z,53.90
2018-07-11T02:00:06.682Z,53.30
2018-07-11T02:02:35.722Z,53.90
2018-07-11T02:05:04.591Z,53.30
2018-07-11T02:07:33.442Z,53.80
2018-07-11T02:10:02.549Z,53.80
2018-07-11T02:12:31.430Z,53.90
2018-07-11T02:15:06.218Z,53.90
2018-07-11T02:17:37.084Z,53.70
2018-07-11T02:20:09.078Z,54.20
2018-07-11T02:22:39.501Z,54.00
2018-07-11T02:25:08.682Z,53.80
2018-07-11T02:27:38.162Z,53.30
2018-07-11T02:30:06.951Z,53.90
2018-07-11T02:32:35.870Z,53.70
2018-07-11T02:35:04.838Z,53.60
2018-07-11T02:37:33.678Z,53.60
2018-07-11T02:40:02.503Z,53.60
2018-07-11T02:42:31.819Z,53.60
2018-07-11T02:45:00.729Z,53.10
2018-07-11T02:47:35.104Z,53.70
2018-07-11T02:50:04.144Z,53.70
2018-07-11T02:52:33.266Z,53.70
2018-07-11T02:55:02.333Z,53.80
2018-07-11T02:57:31.147Z,53.70
2018-07-11T02:59:59.966Z,53.80
2018-07-11T03:02:29.073Z,53.60
2018-07-11T03:04:57.936Z,54.10
2018-07-11T03:07:26.885Z,53.80
2018-07-11T03:09:55.786Z,54.30
2018-07-11T03:12:24.672Z,53.40
2018-07-11T03:14:53.522Z,53.50
2018-07-11T03:17:22.602Z,54.10
2018-07-11T03:19:51.414Z,53.90
2018-07-11T03:22:20.310Z,53.90
2018-07-11T03:24:49.350Z,53.50
2018-07-11T03:27:18.210Z,54.00
2018-07-11T03:29:47.010Z,53.90
2018-07-11T03:32:16.143Z,53.80
2018-07-11T03:37:13.413Z,54.00
2018-07-11T03:39:43.358Z,54.50
2018-07-11T03:42:12.170Z,53.60
2018-07-11T03:44:41.108Z,53.40
2018-07-11T03:47:10.082Z,53.80
2018-07-11T03:49:38.890Z,53.20
2018-07-11T03:52:07.784Z,51.90
2018-07-11T03:54:36.624Z,53.80
2018-07-11T03:57:05.470Z,52.70
2018-07-11T03:59:34.284Z,53.10
2018-07-11T04:02:03.125Z,52.90
2018-07-11T04:04:31.912Z,53.30
2018-07-11T04:07:00.685Z,53.60
2018-07-11T04:09:29.739Z,53.30
2018-07-11T04:11:58.497Z,53.90
2018-07-11T04:14:27.285Z,53.20
2018-07-11T04:16:56.579Z,53.70
2018-07-11T04:19:25.369Z,53.70
2018-07-11T04:21:54.164Z,53.70
2018-07-11T04:24:23.398Z,53.90
2018-07-11T04:26:52.231Z,53.90
2018-07-11T04:31:49.444Z,52.10
2018-07-11T04:34:18.241Z,52.50
2018-07-11T04:39:16.133Z,54.00
2018-07-11T04:41:45.032Z,52.90
2018-07-11T04:44:13.918Z,53.10
2018-07-11T04:46:42.899Z,53.50
2018-07-11T04:49:11.805Z,53.60
2018-07-11T04:51:40.721Z,54.20
2018-07-11T04:54:10.163Z,54.80
2018-07-11T04:56:39.015Z,54.80
2018-07-11T04:59:07.840Z,53.40
2018-07-11T05:01:36.810Z,53.90
2018-07-11T05:04:05.929Z,54.10
2018-07-11T05:06:34.886Z,54.00
2018-07-11T05:09:03.918Z,54.20
2018-07-11T05:11:32.697Z,54.60
2018-07-11T05:14:01.508Z,54.20
2018-07-11T05:16:30.346Z,53.90
2018-07-11T05:18:59.146Z,54.60
2018-07-11T05:21:27.925Z,54.50
2018-07-11T05:23:56.984Z,54.20
2018-07-11T05:26:25.794Z,54.30
2018-07-11T05:28:54.656Z,53.90
2018-07-11T05:31:23.471Z,53.50
2018-07-11T05:33:52.248Z,53.90
2018-07-11T05:41:18.341Z,52.90
2018-07-11T05:43:47.252Z,52.50
2018-07-11T05:46:16.463Z,52.30
2018-07-11T05:48:45.275Z,53.50
2018-07-11T05:51:14.566Z,53.10
2018-07-11T05:53:43.954Z,52.80
2018-07-11T05:56:13.092Z,52.50
2018-07-11T05:58:42.193Z,52.10
2018-07-11T06:01:11.338Z,52.10
2018-07-11T06:03:40.127Z,50.60
2018-07-11T06:06:15.716Z,51.30
2018-07-11T06:08:44.528Z,51.40
2018-07-11T06:11:21.953Z,49.20
2018-07-11T06:13:51.405Z,49.70
2018-07-11T06:16:20.242Z,49.20
2018-07-11T06:21:18.181Z,48.70
2018-07-11T06:23:46.978Z,47.40
2018-07-11T06:26:15.934Z,47.50
2018-07-11T06:28:44.719Z,47.00
2018-07-11T06:31:13.503Z,46.70
2018-07-11T06:33:42.531Z,46.70
2018-07-11T06:36:11.392Z,45.10
2018-07-11T06:38:40.168Z,46.00
2018-07-11T06:41:09.247Z,44.80
2018-07-11T06:43:38.082Z,43.50
2018-07-11T06:46:06.947Z,44.00
2018-07-11T06:48:35.870Z,42.20
2018-07-11T06:51:04.682Z,42.60
2018-07-11T06:53:33.467Z,41.90
2018-07-11T06:56:02.366Z,42.10
2018-07-11T06:58:31.110Z,41.70
2018-07-11T07:00:59.946Z,40.10
2018-07-11T07:03:28.761Z,40.70
2018-07-11T07:05:57.645Z,39.40
2018-07-11T07:08:26.448Z,39.80
2018-07-11T07:10:55.708Z,38.80
2018-07-11T07:13:24.495Z,39.80
2018-07-11T07:15:53.356Z,39.70
2018-07-11T07:18:22.169Z,38.40
2018-07-11T07:20:51.080Z,39.10
2018-07-11T07:23:19.928Z,37.20
2018-07-11T07:25:48.767Z,35.70
2018-07-11T07:28:17.562Z,35.50
2018-07-11T07:30:46.396Z,35.00
2018-07-11T07:33:15.681Z,36.10
2018-07-11T07:35:44.719Z,34.30
2018-07-11T07:40:42.371Z,34.50
2018-07-11T07:43:11.163Z,34.10
2018-07-11T07:45:41.285Z,31.20
2018-07-11T07:48:10.175Z,31.70
2018-07-11T07:50:39.015Z,29.80
2018-07-11T07:53:07.909Z,30.40
2018-07-11T07:55:36.811Z,30.00
2018-07-11T07:58:05.771Z,29.30
2018-07-11T08:00:34.847Z,28.10
2018-07-11T08:03:03.854Z,26.40
2018-07-11T08:05:32.895Z,25.10
2018-07-11T08:08:01.701Z,24.00
2018-07-11T08:10:30.530Z,22.70
2018-07-11T08:12:59.387Z,22.30
2018-07-11T08:15:28.202Z,21.50
2018-07-11T08:17:57.118Z,21.00
2018-07-11T08:20:25.900Z,19.70
2018-07-11T08:23:15.557Z,18.60
2018-07-11T08:29:32.995Z,17.10
2018-07-11T08:32:12.946Z,15.90
2018-07-11T08:36:55.554Z,15.40
2018-07-11T08:39:38.538Z,14.90
2018-07-11T08:42:22.138Z,15.30
2018-07-11T08:45:44.442Z,15.00
2018-07-11T08:53:24.994Z,14.80
2018-07-11T08:56:07.840Z,14.20
2018-07-11T09:00:55.833Z,13.80
2018-07-11T09:04:43.650Z,13.20
2018-07-11T09:10:26.476Z,11.50
2018-07-11T09:13:05.309Z,12.10
2018-07-11T09:16:46.745Z,12.80
2018-07-11T09:19:25.394Z,12.90
2018-07-11T09:22:19.333Z,12.60
2018-07-11T09:24:49.202Z,11.50
2018-07-11T09:29:47.514Z,12.40
2018-07-11T09:34:46.072Z,13.20
2018-07-11T09:37:14.918Z,11.90
2018-07-11T09:39:44.086Z,11.30
2018-07-11T09:42:12.888Z,11.40
2018-07-11T09:44:41.787Z,11.60
2018-07-11T09:47:15.751Z,11.10
2018-07-11T09:49:44.773Z,10.40
2018-07-11T09:52:13.636Z,10.70
2018-07-11T09:54:42.599Z,10.30
2018-07-11T09:57:12.148Z,10.70
2018-07-11T09:59:41.020Z,10.30
2018-07-11T10:02:09.948Z,10.30
2018-07-11T10:04:38.998Z,9.60
2018-07-11T10:07:07.826Z,9.30
2018-07-11T10:09:36.756Z,8.80
2018-07-11T10:12:06.002Z,8.70
2018-07-11T10:14:34.789Z,8.90
2018-07-11T10:17:03.676Z,9.00
2018-07-11T10:19:32.582Z,8.20
2018-07-11T10:22:01.358Z,8.90
2018-07-11T10:24:30.242Z,8.30
2018-07-11T10:26:59.173Z,8.40
2018-07-11T10:29:28.614Z,8.40
2018-07-11T10:31:57.520Z,8.90
2018-07-11T10:34:26.715Z,7.90
2018-07-11T10:36:55.589Z,8.00
2018-07-11T10:39:24.452Z,8.10
2018-07-11T10:41:53.535Z,8.60
2018-07-11T10:44:22.296Z,7.40
2018-07-11T10:46:55.453Z,7.80
2018-07-11T10:49:24.421Z,7.80
2018-07-11T10:51:53.424Z,7.80
2018-07-11T10:54:22.266Z,8.50
2018-07-11T10:56:51.272Z,9.20
2018-07-11T10:59:20.227Z,8.80
2018-07-11T11:01:49.047Z,9.00
2018-07-11T11:04:20.778Z,9.20
2018-07-11T11:06:49.605Z,10.20
2018-07-11T11:09:18.582Z,10.50
2018-07-11T11:11:47.456Z,10.30
2018-07-11T11:14:16.254Z,10.50
2018-07-11T11:16:45.081Z,12.30
2018-07-11T11:19:13.959Z,13.00
2018-07-11T11:24:11.265Z,15.30
2018-07-11T11:26:40.069Z,15.80
2018-07-11T11:29:08.870Z,16.60
2018-07-11T11:31:37.725Z,17.60
2018-07-11T11:34:06.522Z,17.50
2018-07-11T11:36:35.411Z,17.20
2018-07-11T11:39:05.166Z,17.60
2018-07-11T11:41:34.189Z,19.40
2018-07-11T11:44:03.515Z,18.20
2018-07-11T11:46:32.581Z,19.00
2018-07-11T11:49:01.415Z,20.00
2018-07-11T11:51:30.210Z,21.10
2018-07-11T11:53:59.314Z,20.00
2018-07-11T11:56:28.200Z,20.00
2018-07-11T11:58:57.048Z,20.70
2018-07-11T12:01:25.890Z,21.20
2018-07-11T12:03:54.690Z,20.80
2018-07-11T12:06:23.507Z,21.80
2018-07-11T12:08:52.530Z,22.00
2018-07-11T12:11:21.330Z,22.20
2018-07-11T12:13:50.157Z,22.00
2018-07-11T12:16:19.017Z,21.50
2018-07-11T12:18:47.879Z,23.30
2018-07-11T12:21:16.890Z,23.80
2018-07-11T12:23:46.098Z,21.80
2018-07-11T12:26:15.354Z,21.60
2018-07-11T12:28:44.141Z,22.10
2018-07-11T12:31:13.075Z,23.70
2018-07-11T12:33:41.918Z,22.00
2018-07-11T12:36:10.804Z,24.40
2018-07-11T12:38:39.826Z,24.10
2018-07-11T12:41:08.699Z,22.90
2018-07-11T12:43:37.556Z,23.60
2018-07-11T12:46:06.417Z,22.70
2018-07-11T12:48:40.564Z,23.20
2018-07-11T12:51:09.819Z,23.60
2018-07-11T12:53:38.641Z,24.60
2018-07-11T12:56:07.527Z,23.70
2018-07-11T12:58:36.446Z,24.20
2018-07-11T13:01:05.288Z,23.50
2018-07-11T13:03:34.208Z,24.30
2018-07-11T13:06:03.485Z,25.40
2018-07-11T13:08:32.327Z,24.60
2018-07-11T13:11:01.169Z,24.20
2018-07-11T13:13:30.018Z,24.70
2018-07-11T13:15:58.869Z,25.10
2018-07-11T13:18:27.730Z,25.40
2018-07-11T13:20:56.548Z,25.80
2018-07-11T13:23:25.346Z,25.60
2018-07-11T13:25:54.231Z,25.40
2018-07-11T13:28:23.106Z,24.60
2018-07-11T13:30:51.975Z,24.60
2018-07-11T13:33:20.885Z,25.70
2018-07-11T13:35:49.905Z,25.00
2018-07-11T13:40:47.224Z,24.70
2018-07-11T13:43:16.034Z,25.80
2018-07-11T13:45:44.866Z,26.10
2018-07-11T13:48:13.674Z,25.30
2018-07-11T13:50:42.660Z,25.80
2018-07-11T13:53:11.529Z,25.50
2018-07-11T13:55:40.399Z,23.90
2018-07-11T13:58:10.152Z,24.00
2018-07-11T14:00:39.098Z,24.90
2018-07-11T14:03:07.895Z,24.60
2018-07-11T14:05:36.906Z,25.00
2018-07-11T14:08:05.726Z,24.30
2018-07-11T14:10:34.514Z,23.70
2018-07-11T14:13:03.332Z,24.50
2018-07-11T14:18:00.615Z,23.80
2018-07-11T14:20:29.496Z,24.20
2018-07-11T14:23:07.940Z,24.80
2018-07-11T14:25:40.295Z,25.30
2018-07-11T14:30:39.107Z,25.10
2018-07-11T14:33:09.708Z,25.40
2018-07-11T14:35:38.571Z,25.20
2018-07-11T14:38:07.454Z,24.80
2018-07-11T14:40:36.424Z,24.30
2018-07-11T14:43:05.294Z,24.80
2018-07-11T14:45:34.529Z,23.70
2018-07-11T14:48:08.615Z,23.90
2018-07-11T14:50:37.394Z,22.90
2018-07-11T14:53:06.633Z,23.30
2018-07-11T14:55:35.737Z,23.30
2018-07-11T14:58:04.813Z,23.90
2018-07-11T15:00:33.638Z,22.80
2018-07-11T15:03:02.646Z,23.50
2018-07-11T15:05:31.550Z,23.10
2018-07-11T15:08:00.635Z,22.50
2018-07-11T15:10:29.599Z,22.80
2018-07-11T15:12:58.486Z,22.60
2018-07-11T15:15:27.354Z,22.50
2018-07-11T15:17:56.716Z,23.50
2018-07-11T15:20:25.640Z,23.20
2018-07-11T15:22:55.182Z,23.30
2018-07-11T15:25:24.723Z,23.20
2018-07-11T15:27:54.142Z,23.70
2018-07-11T15:30:23.043Z,24.20
2018-07-11T15:32:52.207Z,24.50
2018-07-11T15:35:21.138Z,25.00
2018-07-11T15:37:50.043Z,25.60
2018-07-11T15:42:48.706Z,25.10
2018-07-11T15:45:17.614Z,25.10
2018-07-11T15:47:46.962Z,25.30
2018-07-11T15:50:15.985Z,25.80
2018-07-11T15:52:44.857Z,25.60
2018-07-11T15:55:13.919Z,27.30
2018-07-11T15:57:50.842Z,27.80
2018-07-11T16:00:22.905Z,28.00
2018-07-11T16:02:51.830Z,28.10
2018-07-11T16:05:22.181Z,28.60
2018-07-11T16:07:54.001Z,28.30
2018-07-11T16:10:28.248Z,28.70
2018-07-11T16:12:57.124Z,28.50
2018-07-11T16:15:25.941Z,29.20
2018-07-11T16:17:54.759Z,29.20
2018-07-11T16:20:23.664Z,29.40
2018-07-11T16:22:52.973Z,30.00
2018-07-11T16:25:22.105Z,30.10
2018-07-11T16:27:51.267Z,30.50
2018-07-11T16:30:20.106Z,30.80
2018-07-11T16:32:48.953Z,30.70
2018-07-11T16:35:18.057Z,31.20
2018-07-11T16:37:47.914Z,31.30
2018-07-11T16:40:17.207Z,31.90
2018-07-11T16:42:46.150Z,32.30
2018-07-11T16:45:14.945Z,32.40
2018-07-11T16:47:44.971Z,32.00
2018-07-11T16:50:13.965Z,31.80
2018-07-11T16:52:42.849Z,32.40
2018-07-11T16:55:12.391Z,32.30
2018-07-11T16:57:48.823Z,32.20
2018-07-11T17:00:25.436Z,32.80
2018-07-11T17:03:07.678Z,33.90
2018-07-11T17:05:45.458Z,32.20
2018-07-11T17:08:17.179Z,32.80
2018-07-11T17:10:46.406Z,32.60
2018-07-11T17:13:24.975Z,33.30
2018-07-11T17:15:54.582Z,33.80
2018-07-11T17:18:45.032Z,33.20
2018-07-11T17:21:21.301Z,33.50
2018-07-11T17:23:54.260Z,33.70
2018-07-11T17:26:26.661Z,33.50
2018-07-11T17:28:57.967Z,34.00
2018-07-11T17:31:28.247Z,34.30
2018-07-11T17:33:58.110Z,34.50
2018-07-11T17:36:29.247Z,35.10
2018-07-11T17:38:58.142Z,35.00
2018-07-11T17:41:27.085Z,35.50
2018-07-11T17:43:56.189Z,35.20
2018-07-11T17:46:25.147Z,35.30
2018-07-11T17:49:34.863Z,35.80
2018-07-11T17:52:09.372Z,35.90
2018-07-11T17:55:17.693Z,35.80
2018-07-11T18:00:42.002Z,36.40
2018-07-11T18:05:29.152Z,37.10
2018-07-11T18:08:04.122Z,37.60
2018-07-11T18:10:55.086Z,37.50
2018-07-11T18:13:43.177Z,38.10
2018-07-11T18:16:52.369Z,38.60
2018-07-11T18:19:33.835Z,39.10
2018-07-11T18:23:17.943Z,39.80
2018-07-11T18:28:04.071Z,40.40
2018-07-11T18:31:14.954Z,41.60
2018-07-11T18:33:50.631Z,41.70
2018-07-11T18:38:31.563Z,42.30
2018-07-11T18:43:14.185Z,42.80
2018-07-11T18:46:00.083Z,43.10
2018-07-11T18:49:41.418Z,43.80
2018-07-11T18:52:21.532Z,44.10
2018-07-11T18:54:54.439Z,43.90
2018-07-11T18:57:31.920Z,44.00
2018-07-11T19:00:43.374Z,43.90
2018-07-11T19:03:23.650Z,44.30
2018-07-11T19:06:04.101Z,44.50
2018-07-11T19:09:09.380Z,44.40
2018-07-11T19:11:48.324Z,44.90
2018-07-11T19:14:22.230Z,44.50
2018-07-11T19:18:00.199Z,45.00
2018-07-11T19:20:40.682Z,44.60
2018-07-11T19:23:24.313Z,45.20
2018-07-11T19:27:15.378Z,45.20
2018-07-11T19:30:17.199Z,45.00
2018-07-11T19:34:58.167Z,45.60
2018-07-11T19:37:42.283Z,45.80
2018-07-11T19:40:19.264Z,45.90
2018-07-11T19:45:12.924Z,46.40
2018-07-11T19:47:54.040Z,46.40
2018-07-11T19:50:39.635Z,46.40
2018-07-11T19:53:17.790Z,46.90
2018-07-11T19:55:57.727Z,46.80
2018-07-11T19:58:26.551Z,46.30
2018-07-11T20:00:55.486Z,46.70
2018-07-11T20:03:24.421Z,47.10
2018-07-11T20:05:53.726Z,46.70
2018-07-11T20:08:22.151Z,46.00
2018-07-11T20:10:51.058Z,46.60
2018-07-11T20:13:19.953Z,45.70
2018-07-11T20:15:48.847Z,46.20
2018-07-11T20:18:18.116Z,46.20
2018-07-11T20:20:47.003Z,46.30
2018-07-11T20:23:15.874Z,47.10
2018-07-11T20:25:45.015Z,46.70
2018-07-11T20:28:13.806Z,46.50
2018-07-11T20:30:42.702Z,47.00
2018-07-11T20:33:11.539Z,47.00
2018-07-11T20:35:40.319Z,47.00
2018-07-11T20:38:09.183Z,47.20
2018-07-11T20:40:38.116Z,47.60
2018-07-11T20:43:06.946Z,47.30
2018-07-11T20:45:36.232Z,47.90
2018-07-11T20:48:05.492Z,47.90
2018-07-11T20:50:34.301Z,47.90
2018-07-11T20:53:03.197Z,48.10
2018-07-11T20:55:32.442Z,48.20
2018-07-11T20:58:12.458Z,48.20
2018-07-11T21:00:52.658Z,48.40
2018-07-11T21:05:36.430Z,47.80
2018-07-11T21:08:20.823Z,48.40
2018-07-11T21:13:03.730Z,48.30
2018-07-11T21:17:50.399Z,48.50
2018-07-11T21:20:19.235Z,48.80
2018-07-11T21:22:48.095Z,49.00
2018-07-11T21:25:17.114Z,48.90
2018-07-11T21:27:45.881Z,49.60
2018-07-11T21:30:14.710Z,49.00
2018-07-11T21:32:43.542Z,49.50
2018-07-11T21:35:12.347Z,49.20
2018-07-11T21:37:41.258Z,49.70
2018-07-11T21:40:10.528Z,49.60
2018-07-11T21:42:39.348Z,49.20
2018-07-11T21:45:08.164Z,48.90
2018-07-11T21:47:37.023Z,49.30
2018-07-11T21:50:05.848Z,48.40
2018-07-11T21:52:34.641Z,48.40
2018-07-11T21:55:04.077Z,48.80
2018-07-11T21:57:32.892Z,48.60
2018-07-11T22:02:30.244Z,48.90
2018-07-11T22:04:59.029Z,49.40
2018-07-11T22:09:56.610Z,48.70
2018-07-11T22:12:25.380Z,49.10
2018-07-11T22:14:54.150Z,49.60
2018-07-11T22:17:30.975Z,49.60
2018-07-11T22:19:58.453Z,49.60
2018-07-11T22:22:25.934Z,49.10
2018-07-11T22:24:53.451Z,49.20
2018-07-11T22:27:20.910Z,49.80
2018-07-11T22:29:48.397Z,50.80
2018-07-11T22:32:16.007Z,50.10
2018-07-11T22:34:43.484Z,50.00
2018-07-11T22:39:38.792Z,49.90
2018-07-11T22:42:06.288Z,49.80
2018-07-11T22:44:33.769Z,50.40
2018-07-11T22:47:01.328Z,49.90
2018-07-11T22:49:28.875Z,49.60
2018-07-11T22:51:56.341Z,50.10
2018-07-11T22:54:23.851Z,49.70
2018-07-11T22:56:51.343Z,50.20
2018-07-11T22:59:18.818Z,50.40
2018-07-11T23:01:46.385Z,50.60
2018-07-11T23:04:13.857Z,50.80
2018-07-11T23:06:41.336Z,50.80
2018-07-11T23:09:08.840Z,50.70
2018-07-11T23:11:36.318Z,50.40
2018-07-11T23:14:03.807Z,51.00
2018-07-11T23:16:31.302Z,50.70
2018-07-11T23:18:58.793Z,50.80
2018-07-11T23:21:26.400Z,50.70
2018-07-11T23:23:54.272Z,50.90
2018-07-11T23:26:21.761Z,50.70
2018-07-11T23:28:49.237Z,50.80
2018-07-11T23:33:44.739Z,50.30
2018-07-11T23:38:40.051Z,50.40
2018-07-11T23:41:07.505Z,50.90
2018-07-11T23:43:35.001Z,50.80
2018-07-11T23:46:02.881Z,51.10
2018-07-11T23:48:30.358Z,50.60
2018-07-11T23:50:57.828Z,51.10
2018-07-11T23:53:25.512Z,50.70
2018-07-11T23:55:52.988Z,51.30
2018-07-11T23:58:20.454Z,51.40
